createdAt,value
2018-04-07T00:00:35.156Z,4.20
2018-04-07T00:01:35.115Z,7.00
2018-04-07T00:02:35.075Z,5.00
2018-04-07T00:03:35.027Z,4.90
2018-04-07T00:04:34.985Z,5.50
2018-04-07T00:05:34.940Z,5.50
2018-04-07T00:06:34.899Z,4.20
2018-04-07T00:07:34.855Z,5.70
2018-04-07T00:08:34.812Z,4.80
2018-04-07T00:09:34.764Z,5.50
2018-04-07T00:10:34.748Z,4.40
2018-04-07T00:11:34.679Z,5.20
2018-04-07T00:12:34.637Z,4.90
2018-04-07T00:13:34.597Z,4.70
2018-04-07T00:14:34.548Z,4.50
2018-04-07T00:15:34.506Z,5.80
2018-04-07T00:16:34.463Z,4.70
2018-04-07T00:17:34.421Z,4.30
2018-04-07T00:18:34.379Z,5.60
2018-04-07T00:19:34.335Z,6.20
2018-04-07T00:20:34.287Z,5.80
2018-04-07T00:21:34.245Z,5.20
2018-04-07T00:22:34.201Z,6.10
2018-04-07T00:23:34.168Z,5.80
2018-04-07T00:24:34.114Z,5.10
2018-04-07T00:25:34.072Z,4.20
2018-04-07T00:26:34.028Z,5.50
2018-04-07T00:27:33.992Z,4.80
2018-04-07T00:28:33.941Z,5.80
2018-04-07T00:29:33.899Z,5.00
2018-04-07T00:30:33.853Z,5.40
2018-04-07T00:31:33.814Z,5.50
2018-04-07T00:32:33.774Z,4.40
2018-04-07T00:33:33.725Z,8.20
2018-04-07T00:34:33.679Z,4.30
2018-04-07T00:35:33.637Z,4.70
2018-04-07T00:36:33.594Z,5.80
2018-04-07T00:37:33.551Z,4.80
2018-04-07T00:38:33.506Z,4.40
2018-04-07T00:39:33.463Z,5.60
2018-04-07T00:40:33.420Z,5.10
2018-04-07T00:41:33.373Z,4.90
2018-04-07T00:42:33.331Z,4.80
2018-04-07T00:43:33.289Z,5.50
2018-04-07T00:44:33.244Z,5.50
2018-04-07T00:45:33.200Z,4.70
2018-04-07T00:46:33.157Z,5.90
2018-04-07T00:47:33.112Z,6.00
2018-04-07T00:48:33.067Z,4.80
2018-04-07T00:49:33.031Z,6.00
2018-04-07T00:50:32.982Z,4.60
2018-04-07T00:51:32.938Z,5.60
2018-04-07T00:52:32.897Z,4.70
2018-04-07T00:53:32.850Z,5.30
2018-04-07T00:54:32.808Z,6.80
2018-04-07T00:55:32.767Z,5.30
2018-04-07T00:56:32.720Z,5.40
2018-04-07T00:57:32.678Z,6.40
2018-04-07T00:58:32.632Z,6.20
2018-04-07T00:59:32.592Z,7.00
2018-04-07T01:00:32.547Z,7.00
2018-04-07T01:01:32.506Z,4.80
2018-04-07T01:02:32.457Z,5.40
2018-04-07T01:03:32.414Z,5.30
2018-04-07T01:04:32.369Z,6.10
2018-04-07T01:05:32.329Z,4.60
2018-04-07T01:06:32.283Z,5.60
2018-04-07T01:07:32.241Z,5.90
2018-04-07T01:08:32.195Z,4.90
2018-04-07T01:09:32.154Z,6.70
2018-04-07T01:10:32.108Z,5.10
2018-04-07T01:11:32.067Z,6.70
2018-04-07T01:12:32.022Z,4.90
2018-04-07T01:13:31.977Z,4.90
2018-04-07T01:14:31.937Z,5.50
2018-04-07T01:15:31.892Z,6.30
2018-04-07T01:16:31.859Z,5.10
2018-04-07T01:17:31.804Z,6.20
2018-04-07T01:18:31.759Z,7.10
2018-04-07T01:19:31.720Z,5.70
2018-04-07T01:20:31.675Z,6.40
2018-04-07T01:21:31.631Z,5.30
2018-04-07T01:22:31.586Z,5.50
2018-04-07T01:23:31.541Z,5.60
2018-04-07T01:24:31.497Z,7.20
2018-04-07T01:25:31.453Z,4.90
2018-04-07T01:26:31.414Z,5.00
2018-04-07T01:27:31.373Z,6.10
2018-04-07T01:28:31.332Z,5.90
2018-04-07T01:29:31.277Z,5.00
2018-04-07T01:30:31.235Z,6.20
2018-04-07T01:31:31.191Z,6.30
2018-04-07T01:32:31.148Z,5.60
2018-04-07T01:33:31.104Z,5.20
2018-04-07T01:34:31.060Z,5.90
2018-04-07T01:35:31.018Z,5.30
2018-04-07T01:36:30.973Z,5.10
2018-04-07T01:37:30.929Z,5.10
2018-04-07T01:38:30.887Z,5.90
2018-04-07T01:39:30.845Z,5.30
2018-04-07T01:40:30.800Z,5.90
2018-04-07T01:41:30.755Z,5.30
2018-04-07T01:42:30.715Z,6.90
2018-04-07T01:43:30.673Z,6.00
2018-04-07T01:44:30.622Z,7.40
2018-04-07T01:45:30.583Z,4.80
2018-04-07T01:46:30.538Z,6.00
2018-04-07T01:47:30.503Z,6.40
2018-04-07T01:48:30.449Z,5.10
2018-04-07T01:49:30.409Z,6.10
2018-04-07T01:50:30.361Z,5.80
2018-04-07T01:51:30.323Z,6.80
2018-04-07T01:52:30.274Z,6.10
2018-04-07T01:53:30.231Z,6.10
2018-04-07T01:54:30.187Z,5.80
2018-04-07T01:55:30.142Z,5.40
2018-04-07T01:56:30.099Z,5.40
2018-04-07T01:57:30.056Z,6.30
2018-04-07T01:58:30.013Z,5.10
2018-04-07T01:59:29.971Z,5.40
2018-04-07T02:00:29.924Z,5.90
2018-04-07T02:01:29.880Z,7.00
2018-04-07T02:02:29.836Z,5.50
2018-04-07T02:03:29.794Z,5.90
2018-04-07T02:04:29.753Z,6.20
2018-04-07T02:05:29.707Z,5.70
2018-04-07T02:06:29.662Z,5.90
2018-04-07T02:07:29.619Z,6.50
2018-04-07T02:08:29.574Z,6.90
2018-04-07T02:09:29.531Z,5.40
2018-04-07T02:10:29.487Z,6.50
2018-04-07T02:11:29.444Z,6.60
2018-04-07T02:12:29.403Z,5.50
2018-04-07T02:13:29.359Z,7.20
2018-04-07T02:14:29.317Z,7.00
2018-04-07T02:15:29.272Z,5.80
2018-04-07T02:16:29.225Z,5.60
2018-04-07T02:17:29.180Z,6.00
2018-04-07T02:18:29.137Z,6.40
2018-04-07T02:19:29.093Z,7.20
2018-04-07T02:20:29.049Z,6.10
2018-04-07T02:21:29.005Z,6.20
2018-04-07T02:22:28.962Z,6.20
2018-04-07T02:23:28.927Z,8.40
2018-04-07T02:24:28.876Z,6.30
2018-04-07T02:25:28.832Z,6.70
2018-04-07T02:26:28.790Z,5.90
2018-04-07T02:27:28.746Z,6.80
2018-04-07T02:28:28.698Z,6.90
2018-04-07T02:29:28.660Z,6.40
2018-04-07T02:30:28.612Z,7.80
2018-04-07T02:31:28.569Z,6.00
2018-04-07T02:32:28.528Z,6.00
2018-04-07T02:33:28.482Z,6.10
2018-04-07T02:34:28.441Z,6.40
2018-04-07T02:35:28.394Z,5.80
2018-04-07T02:36:28.352Z,6.80
2018-04-07T02:37:28.313Z,5.90
2018-04-07T02:38:28.265Z,6.40
2018-04-07T02:39:28.221Z,7.00
2018-04-07T02:40:28.179Z,7.40
2018-04-07T02:41:28.134Z,6.30
2018-04-07T02:42:28.090Z,5.90
2018-04-07T02:43:28.049Z,7.10
2018-04-07T02:44:28.000Z,7.20
2018-04-07T02:45:27.968Z,6.20
2018-04-07T02:46:27.916Z,6.00
2018-04-07T02:47:27.873Z,7.50
2018-04-07T02:48:27.823Z,7.50
2018-04-07T02:49:27.790Z,6.00
2018-04-07T02:50:27.744Z,6.80
2018-04-07T02:51:27.743Z,5.70
2018-04-07T02:52:27.650Z,7.60
2018-04-07T02:53:27.613Z,7.30
2018-04-07T02:54:27.563Z,8.00
2018-04-07T02:55:27.520Z,8.10
2018-04-07T02:56:27.501Z,6.10
2018-04-07T02:57:27.433Z,5.80
2018-04-07T02:58:27.389Z,6.70
2018-04-07T02:59:27.350Z,7.60
2018-04-07T03:00:27.302Z,6.90
2018-04-07T03:01:27.256Z,6.60
2018-04-07T03:02:27.220Z,8.20
2018-04-07T03:03:27.168Z,7.00
2018-04-07T03:04:27.126Z,6.30
2018-04-07T03:05:27.080Z,7.10
2018-04-07T03:06:27.037Z,7.40
2018-04-07T03:07:27.002Z,7.10
2018-04-07T03:08:26.952Z,8.40
2018-04-07T03:09:26.903Z,6.60
2018-04-07T03:10:26.863Z,7.40
2018-04-07T03:11:26.818Z,6.80
2018-04-07T03:12:26.772Z,7.70
2018-04-07T03:13:26.732Z,9.00
2018-04-07T03:14:26.684Z,7.20
2018-04-07T03:15:26.644Z,7.20
2018-04-07T03:16:26.596Z,6.80
2018-04-07T03:17:26.555Z,7.00
2018-04-07T03:18:26.515Z,8.20
2018-04-07T03:19:26.466Z,6.50
2018-04-07T03:20:26.424Z,5.80
2018-04-07T03:21:26.379Z,7.70
2018-04-07T03:22:26.340Z,8.50
2018-04-07T03:23:26.291Z,6.50
2018-04-07T03:24:26.251Z,8.00
2018-04-07T03:25:26.205Z,7.80
2018-04-07T03:26:26.157Z,7.90
2018-04-07T03:27:26.117Z,8.70
2018-04-07T03:28:26.078Z,7.20
2018-04-07T03:29:26.026Z,8.00
2018-04-07T03:30:25.990Z,7.70
2018-04-07T03:31:25.941Z,6.70
2018-04-07T03:32:25.896Z,8.80
2018-04-07T03:33:25.854Z,8.50
2018-04-07T03:34:25.809Z,7.20
2018-04-07T03:35:25.764Z,7.60
2018-04-07T03:36:25.720Z,7.40
2018-04-07T03:37:25.679Z,7.10
2018-04-07T03:38:25.631Z,7.40
2018-04-07T03:39:25.589Z,8.50
2018-04-07T03:40:25.542Z,7.30
2018-04-07T03:41:25.500Z,7.10
2018-04-07T03:42:25.452Z,7.70
2018-04-07T03:43:25.413Z,10.10
2018-04-07T03:44:25.365Z,7.00
2018-04-07T03:45:25.334Z,6.70
2018-04-07T03:46:25.282Z,8.40
2018-04-07T03:47:25.238Z,9.80
2018-04-07T03:48:25.192Z,7.40
2018-04-07T03:49:25.762Z,7.40
2018-04-07T03:50:25.111Z,8.80
2018-04-07T03:51:25.059Z,9.30
2018-04-07T03:52:25.012Z,9.10
2018-04-07T03:53:24.968Z,9.20
2018-04-07T03:54:24.925Z,6.70
2018-04-07T03:55:24.883Z,7.60
2018-04-07T03:56:24.846Z,8.40
2018-04-07T03:57:24.792Z,7.40
2018-04-07T03:58:24.747Z,8.30
2018-04-07T03:59:24.704Z,7.90
2018-04-07T04:00:24.657Z,8.00
2018-04-07T04:01:24.619Z,8.70
2018-04-07T04:02:24.569Z,7.70
2018-04-07T04:03:24.530Z,10.10
2018-04-07T04:04:24.484Z,10.60
2018-04-07T04:05:24.440Z,9.90
2018-04-07T04:06:24.394Z,9.70
2018-04-07T04:07:24.382Z,8.60
2018-04-07T04:08:24.304Z,8.80
2018-04-07T04:09:24.261Z,8.90
2018-04-07T04:10:24.218Z,7.80
2018-04-07T04:11:24.170Z,8.50
2018-04-07T04:12:24.125Z,9.80
2018-04-07T04:13:24.082Z,7.00
2018-04-07T04:14:24.042Z,7.50
2018-04-07T04:15:23.999Z,7.50
2018-04-07T04:16:23.979Z,9.80
2018-04-07T04:17:23.909Z,7.00
2018-04-07T04:18:23.861Z,7.70
2018-04-07T04:19:23.825Z,7.50
2018-04-07T04:20:23.774Z,8.30
2018-04-07T04:21:23.734Z,8.70
2018-04-07T04:22:23.684Z,7.50
2018-04-07T04:23:23.698Z,7.70
2018-04-07T04:24:23.598Z,7.80
2018-04-07T04:25:23.548Z,10.00
2018-04-07T04:26:23.509Z,8.00
2018-04-07T04:27:23.466Z,7.70
2018-04-07T04:28:23.427Z,7.50
2018-04-07T04:29:23.374Z,7.80
2018-04-07T04:30:23.331Z,7.90
2018-04-07T04:31:23.283Z,8.60
2018-04-07T04:32:23.238Z,8.80
2018-04-07T04:33:23.201Z,8.80
2018-04-07T04:34:23.151Z,8.10
2018-04-07T04:35:23.106Z,8.60
2018-04-07T04:36:23.065Z,8.80
2018-04-07T04:37:23.020Z,9.30
2018-04-07T04:38:22.971Z,9.50
2018-04-07T04:39:22.928Z,8.30
2018-04-07T04:40:22.885Z,8.70
2018-04-07T04:41:22.845Z,9.50
2018-04-07T04:42:22.798Z,10.00
2018-04-07T04:43:22.754Z,9.50
2018-04-07T04:44:22.707Z,10.10
2018-04-07T04:45:22.672Z,8.30
2018-04-07T04:46:22.619Z,11.20
2018-04-07T04:47:22.572Z,9.40
2018-04-07T04:48:22.528Z,8.40
2018-04-07T04:49:22.484Z,8.00
2018-04-07T04:50:22.441Z,9.70
2018-04-07T04:51:22.397Z,9.30
2018-04-07T04:52:22.352Z,9.20
2018-04-07T04:53:22.307Z,10.30
2018-04-07T04:54:22.266Z,8.90
2018-04-07T04:55:22.221Z,8.70
2018-04-07T04:56:22.173Z,10.60
2018-04-07T04:57:22.129Z,9.10
2018-04-07T04:58:22.085Z,9.00
2018-04-07T04:59:22.047Z,9.60
2018-04-07T05:00:21.999Z,8.50
2018-04-07T05:01:21.955Z,10.30
2018-04-07T05:02:21.908Z,9.20
2018-04-07T05:03:21.866Z,8.50
2018-04-07T05:04:21.820Z,9.80
2018-04-07T05:05:21.776Z,9.60
2018-04-07T05:06:21.732Z,8.70
2018-04-07T05:07:21.730Z,10.90
2018-04-07T05:08:21.644Z,9.30
2018-04-07T05:09:21.597Z,9.80
2018-04-07T05:10:21.554Z,10.20
2018-04-07T05:11:21.512Z,9.60
2018-04-07T05:12:21.469Z,10.40
2018-04-07T05:13:21.422Z,10.00
2018-04-07T05:14:21.377Z,9.10
2018-04-07T05:15:21.335Z,10.00
2018-04-07T05:16:21.287Z,10.60
2018-04-07T05:17:21.243Z,9.50
2018-04-07T05:18:21.199Z,8.60
2018-04-07T05:19:21.154Z,9.50
2018-04-07T05:20:21.111Z,10.60
2018-04-07T05:21:21.067Z,8.80
2018-04-07T05:22:21.026Z,10.50
2018-04-07T05:23:20.980Z,10.00
2018-04-07T05:24:20.933Z,10.60
2018-04-07T05:25:20.890Z,9.20
2018-04-07T05:26:20.853Z,10.50
2018-04-07T05:27:20.801Z,10.50
2018-04-07T05:28:20.757Z,10.20
2018-04-07T05:29:20.713Z,8.90
2018-04-07T05:30:20.669Z,9.00
2018-04-07T05:31:20.629Z,9.10
2018-04-07T05:32:20.582Z,10.20
2018-04-07T05:33:20.536Z,10.40
2018-04-07T05:34:20.497Z,8.50
2018-04-07T05:35:20.449Z,9.00
2018-04-07T05:36:20.411Z,10.30
2018-04-07T05:37:20.361Z,8.50
2018-04-07T05:38:20.320Z,10.20
2018-04-07T05:39:20.273Z,10.00
2018-04-07T05:40:20.237Z,10.40
2018-04-07T05:41:20.188Z,13.00
2018-04-07T05:42:20.142Z,10.20
2018-04-07T05:43:20.098Z,9.40
2018-04-07T05:44:20.052Z,11.50
2018-04-07T05:45:20.048Z,9.90
2018-04-07T05:46:19.965Z,10.60
2018-04-07T05:47:19.959Z,10.30
2018-04-07T05:48:19.878Z,9.30
2018-04-07T05:49:19.834Z,12.00
2018-04-07T05:50:19.791Z,11.20
2018-04-07T05:51:19.745Z,11.00
2018-04-07T05:52:19.702Z,9.90
2018-04-07T05:53:19.662Z,8.90
2018-04-07T05:54:19.621Z,9.90
2018-04-07T05:55:19.573Z,10.70
2018-04-07T05:56:19.524Z,10.50
2018-04-07T05:57:19.485Z,8.70
2018-04-07T05:58:19.443Z,10.60
2018-04-07T05:59:19.396Z,10.00
2018-04-07T06:00:19.350Z,11.60
2018-04-07T06:01:19.312Z,9.60
2018-04-07T06:02:19.267Z,10.40
2018-04-07T06:03:19.223Z,11.00
2018-04-07T06:04:19.176Z,9.50
2018-04-07T06:05:19.133Z,10.70
2018-04-07T06:06:19.097Z,10.50
2018-04-07T06:07:19.053Z,9.70
2018-04-07T06:08:19.003Z,9.80
2018-04-07T06:09:18.961Z,9.90
2018-04-07T06:10:18.926Z,10.50
2018-04-07T06:11:18.881Z,9.80
2018-04-07T06:12:18.826Z,11.10
2018-04-07T06:13:18.796Z,9.30
2018-04-07T06:14:18.791Z,10.30
2018-04-07T06:15:18.697Z,10.60
2018-04-07T06:16:18.654Z,10.00
2018-04-07T06:17:18.611Z,10.50
2018-04-07T06:18:18.570Z,10.90
2018-04-07T06:19:18.524Z,8.90
2018-04-07T06:20:18.479Z,9.90
2018-04-07T06:21:18.438Z,9.60
2018-04-07T06:22:18.393Z,9.70
2018-04-07T06:23:18.349Z,8.80
2018-04-07T06:24:18.306Z,10.50
2018-04-07T06:25:18.265Z,10.70
2018-04-07T06:26:18.221Z,11.00
2018-04-07T06:27:18.177Z,9.90
2018-04-07T06:28:18.132Z,11.00
2018-04-07T06:29:18.090Z,11.40
2018-04-07T06:30:18.048Z,10.80
2018-04-07T06:31:18.005Z,11.00
2018-04-07T06:32:17.962Z,9.90
2018-04-07T06:33:17.918Z,11.20
2018-04-07T06:34:17.875Z,9.70
2018-04-07T06:35:17.831Z,9.90
2018-04-07T06:36:17.787Z,10.90
2018-04-07T06:37:17.745Z,10.70
2018-04-07T06:38:17.703Z,10.70
2018-04-07T06:39:17.657Z,10.90
2018-04-07T06:40:17.617Z,12.60
2018-04-07T06:41:17.571Z,10.90
2018-04-07T06:42:17.530Z,9.60
2018-04-07T06:43:17.490Z,10.90
2018-04-07T06:44:17.442Z,11.00
2018-04-07T06:45:17.401Z,9.30
2018-04-07T06:46:17.358Z,13.90
2018-04-07T06:47:17.313Z,9.90
2018-04-07T06:48:17.275Z,10.00
2018-04-07T06:49:17.228Z,10.80
2018-04-07T06:50:17.186Z,9.90
2018-04-07T06:51:17.143Z,10.30
2018-04-07T06:52:17.101Z,10.50
2018-04-07T06:53:17.057Z,10.30
2018-04-07T06:54:17.014Z,10.60
2018-04-07T06:55:16.972Z,11.50
2018-04-07T06:56:16.928Z,9.90
2018-04-07T06:57:16.885Z,11.00
2018-04-07T06:58:16.840Z,11.90
2018-04-07T06:59:16.820Z,11.40
2018-04-07T07:00:16.762Z,9.20
2018-04-07T07:01:16.721Z,10.50
2018-04-07T07:02:16.675Z,9.60
2018-04-07T07:03:16.629Z,11.20
2018-04-07T07:04:16.585Z,12.00
2018-04-07T07:05:16.542Z,10.60
2018-04-07T07:06:16.500Z,9.50
2018-04-07T07:07:16.458Z,10.80
2018-04-07T07:08:16.418Z,9.50
2018-04-07T07:09:16.374Z,10.30
2018-04-07T07:10:16.332Z,11.10
2018-04-07T07:11:16.293Z,11.50
2018-04-07T07:12:16.248Z,10.40
2018-04-07T07:13:16.211Z,10.10
2018-04-07T07:14:16.167Z,10.40
2018-04-07T07:15:16.135Z,9.50
2018-04-07T07:16:16.085Z,11.20
2018-04-07T07:17:16.044Z,11.00
2018-04-07T07:18:16.018Z,10.50
2018-04-07T07:19:15.962Z,10.60
2018-04-07T07:20:15.923Z,11.10
2018-04-07T07:21:15.887Z,10.00
2018-04-07T07:22:15.840Z,10.70
2018-04-07T07:23:15.807Z,10.50
2018-04-07T07:24:15.762Z,9.50
2018-04-07T07:25:15.719Z,9.90
2018-04-07T07:26:15.683Z,10.10
2018-04-07T07:27:15.640Z,12.40
2018-04-07T07:28:15.600Z,9.20
2018-04-07T07:29:15.562Z,11.10
2018-04-07T07:30:15.527Z,8.70
2018-04-07T07:31:15.483Z,10.20
2018-04-07T07:32:15.445Z,10.80
2018-04-07T07:33:15.407Z,10.30
2018-04-07T07:34:15.363Z,9.20
2018-04-07T07:35:15.368Z,9.90
2018-04-07T07:36:15.285Z,15.70
2018-04-07T07:37:15.248Z,10.50
2018-04-07T07:38:15.222Z,10.80
2018-04-07T07:39:15.176Z,10.40
2018-04-07T07:40:15.141Z,9.50
2018-04-07T07:41:15.096Z,10.20
2018-04-07T07:42:15.061Z,10.00
2018-04-07T07:43:15.020Z,10.70
2018-04-07T07:44:14.987Z,11.50
2018-04-07T07:45:14.945Z,11.50
2018-04-07T07:46:14.907Z,9.50
2018-04-07T07:47:14.869Z,10.00
2018-04-07T07:48:14.830Z,11.00
2018-04-07T07:49:14.799Z,10.10
2018-04-07T07:50:14.762Z,11.30
2018-04-07T07:51:14.720Z,11.20
2018-04-07T07:52:14.686Z,10.20
2018-04-07T07:53:14.648Z,10.40
2018-04-07T07:54:14.614Z,10.70
2018-04-07T07:55:14.575Z,13.30
2018-04-07T07:56:14.542Z,11.20
2018-04-07T07:57:14.512Z,10.30
2018-04-07T07:58:14.469Z,8.90
2018-04-07T07:59:14.437Z,8.80
2018-04-07T08:00:14.393Z,9.40
2018-04-07T08:01:14.361Z,11.10
2018-04-07T08:02:14.324Z,10.90
2018-04-07T08:03:14.288Z,9.20
2018-04-07T08:04:14.251Z,9.90
2018-04-07T08:05:14.216Z,10.20
2018-04-07T08:06:14.186Z,9.70
2018-04-07T08:07:14.150Z,11.40
2018-04-07T08:08:14.109Z,11.30
2018-04-07T08:09:14.075Z,9.40
2018-04-07T08:10:14.040Z,12.10
2018-04-07T08:11:14.005Z,12.20
2018-04-07T08:12:13.970Z,9.10
2018-04-07T08:13:13.936Z,12.40
2018-04-07T08:14:13.908Z,9.20
2018-04-07T08:15:13.866Z,8.90
2018-04-07T08:16:13.830Z,11.90
2018-04-07T08:17:13.800Z,9.20
2018-04-07T08:18:13.760Z,9.00
2018-04-07T08:19:13.729Z,12.60
2018-04-07T08:20:13.691Z,9.40
2018-04-07T08:21:13.660Z,9.60
2018-04-07T08:22:13.627Z,9.10
2018-04-07T08:23:13.590Z,9.10
2018-04-07T08:24:13.552Z,10.30
2018-04-07T08:25:13.520Z,8.90
2018-04-07T08:26:13.529Z,9.00
2018-04-07T08:27:13.451Z,10.50
2018-04-07T08:28:13.417Z,11.70
2018-04-07T08:29:13.384Z,9.80
2018-04-07T08:30:13.348Z,9.40
2018-04-07T08:31:13.316Z,8.90
2018-04-07T08:32:13.369Z,8.90
2018-04-07T08:33:13.247Z,8.70
2018-04-07T08:34:13.215Z,9.70
2018-04-07T08:35:13.186Z,9.90
2018-04-07T08:36:13.146Z,10.20
2018-04-07T08:37:14.896Z,8.70
2018-04-07T08:38:13.085Z,10.00
2018-04-07T08:39:13.050Z,9.20
2018-04-07T08:40:13.013Z,11.40
2018-04-07T08:41:12.980Z,11.60
2018-04-07T08:42:12.947Z,10.30
2018-04-07T08:43:12.911Z,9.90
2018-04-07T08:44:12.876Z,8.70
2018-04-07T08:45:12.845Z,9.30
2018-04-07T08:46:12.811Z,9.00
2018-04-07T08:47:12.775Z,9.20
2018-04-07T08:48:12.748Z,9.20
2018-04-07T08:49:12.708Z,10.10
2018-04-07T08:50:12.675Z,9.30
2018-04-07T08:51:12.638Z,10.40
2018-04-07T08:52:12.611Z,9.40
2018-04-07T08:53:12.573Z,10.40
2018-04-07T08:54:12.542Z,10.00
2018-04-07T08:55:12.504Z,11.00
2018-04-07T08:56:12.470Z,8.90
2018-04-07T08:57:12.436Z,9.40
2018-04-07T08:58:12.402Z,9.50
2018-04-07T08:59:12.368Z,8.70
2018-04-07T09:00:12.334Z,9.40
2018-04-07T09:01:12.301Z,9.20
2018-04-07T09:02:12.265Z,9.10
2018-04-07T09:03:12.231Z,10.20
2018-04-07T09:04:12.196Z,11.10
2018-04-07T09:05:12.187Z,10.60
2018-04-07T09:06:12.127Z,11.70
2018-04-07T09:07:12.096Z,9.20
2018-04-07T09:08:12.061Z,10.60
2018-04-07T09:09:12.023Z,10.30
2018-04-07T09:10:11.990Z,10.50
2018-04-07T09:11:11.958Z,9.50
2018-04-07T09:12:11.922Z,9.70
2018-04-07T09:13:11.885Z,9.90
2018-04-07T09:14:11.854Z,10.30
2018-04-07T09:15:11.814Z,8.30
2018-04-07T09:16:11.782Z,9.30
2018-04-07T09:17:11.747Z,9.80
2018-04-07T09:18:11.715Z,10.80
2018-04-07T09:19:11.680Z,12.10
2018-04-07T09:20:11.640Z,8.60
2018-04-07T09:21:11.607Z,9.80
2018-04-07T09:22:11.576Z,8.80
2018-04-07T09:23:11.538Z,8.80
2018-04-07T09:24:11.502Z,9.80
2018-04-07T09:25:11.471Z,8.80
2018-04-07T09:26:11.432Z,9.00
2018-04-07T09:27:11.399Z,9.50
2018-04-07T09:28:11.371Z,9.50
2018-04-07T09:29:11.329Z,9.70
2018-04-07T09:30:11.292Z,9.90
2018-04-07T09:31:11.257Z,9.90
2018-04-07T09:32:11.221Z,9.90
2018-04-07T09:33:11.190Z,11.50
2018-04-07T09:34:11.161Z,9.70
2018-04-07T09:35:11.118Z,9.80
2018-04-07T09:36:11.082Z,10.50
2018-04-07T09:37:11.047Z,10.40
2018-04-07T09:38:11.009Z,9.20
2018-04-07T09:39:10.977Z,9.50
2018-04-07T09:40:10.942Z,10.40
2018-04-07T09:41:10.903Z,10.20
2018-04-07T09:42:10.868Z,10.40
2018-04-07T09:43:10.835Z,10.90
2018-04-07T09:44:10.800Z,8.90
2018-04-07T09:45:10.764Z,10.30
2018-04-07T09:46:10.727Z,10.00
2018-04-07T09:47:10.691Z,10.00
2018-04-07T09:48:10.656Z,8.90
2018-04-07T09:49:10.627Z,8.80
2018-04-07T09:50:10.598Z,9.10
2018-04-07T09:51:10.567Z,9.00
2018-04-07T09:52:10.516Z,8.40
2018-04-07T09:53:10.481Z,10.10
2018-04-07T09:54:10.444Z,9.80
2018-04-07T09:55:10.409Z,11.80
2018-04-07T09:56:10.374Z,10.00
2018-04-07T09:57:10.383Z,8.70
2018-04-07T09:58:10.305Z,8.40
2018-04-07T09:59:10.271Z,8.00
2018-04-07T10:00:10.232Z,9.80
2018-04-07T10:01:10.197Z,8.80
2018-04-07T10:02:10.163Z,7.90
2018-04-07T10:03:10.127Z,9.50
2018-04-07T10:04:10.092Z,8.60
2018-04-07T10:05:10.055Z,8.10
2018-04-07T10:06:10.019Z,8.40
2018-04-07T10:07:09.986Z,8.90
2018-04-07T10:08:09.948Z,8.70
2018-04-07T10:09:09.917Z,8.90
2018-04-07T10:10:09.883Z,7.60
2018-04-07T10:11:09.847Z,8.50
2018-04-07T10:12:09.807Z,8.20
2018-04-07T10:13:09.775Z,9.50
2018-04-07T10:14:09.739Z,7.50
2018-04-07T10:15:09.705Z,8.60
2018-04-07T10:16:09.669Z,8.00
2018-04-07T10:17:09.636Z,7.80
2018-04-07T10:18:09.601Z,8.00
2018-04-07T10:19:09.566Z,9.50
2018-04-07T10:20:09.531Z,8.80
2018-04-07T10:21:09.498Z,8.00
2018-04-07T10:22:09.472Z,8.70
2018-04-07T10:23:09.426Z,7.70
2018-04-07T10:24:09.392Z,7.70
2018-04-07T10:25:09.358Z,8.60
2018-04-07T10:26:09.322Z,8.20
2018-04-07T10:27:09.341Z,11.20
2018-04-07T10:28:09.281Z,8.00
2018-04-07T10:29:09.217Z,9.30
2018-04-07T10:30:09.191Z,9.30
2018-04-07T10:31:09.158Z,9.90
2018-04-07T10:32:09.117Z,8.60
2018-04-07T10:33:09.082Z,8.10
2018-04-07T10:34:09.046Z,10.80
2018-04-07T10:35:09.011Z,8.60
2018-04-07T10:36:08.976Z,9.90
2018-04-07T10:37:08.941Z,9.90
2018-04-07T10:38:08.909Z,10.50
2018-04-07T10:39:08.872Z,8.70
2018-04-07T10:40:08.836Z,10.30
2018-04-07T10:41:08.802Z,10.10
2018-04-07T10:42:09.474Z,9.30
2018-04-07T10:43:08.740Z,9.80
2018-04-07T10:44:08.696Z,9.00
2018-04-07T10:45:08.667Z,8.60
2018-04-07T10:46:08.629Z,9.30
2018-04-07T10:47:08.599Z,8.10
2018-04-07T10:48:08.558Z,8.40
2018-04-07T10:49:08.524Z,9.20
2018-04-07T10:50:08.492Z,10.00
2018-04-07T10:51:08.458Z,8.50
2018-04-07T10:52:08.425Z,8.20
2018-04-07T10:53:08.390Z,9.00
2018-04-07T10:54:08.350Z,9.30
2018-04-07T10:55:08.317Z,10.10
2018-04-07T10:56:08.281Z,8.20
2018-04-07T10:57:08.251Z,8.30
2018-04-07T10:58:08.217Z,8.60
2018-04-07T10:59:08.181Z,9.10
2018-04-07T11:00:08.146Z,8.80
2018-04-07T11:01:08.107Z,8.60
2018-04-07T11:02:08.074Z,8.90
2018-04-07T11:03:08.042Z,9.30
2018-04-07T11:04:08.006Z,9.20
2018-04-07T11:05:07.972Z,11.90
2018-04-07T11:06:07.961Z,10.60
2018-04-07T11:07:07.902Z,9.30
2018-04-07T11:08:07.866Z,10.50
2018-04-07T11:09:07.829Z,12.00
2018-04-07T11:10:07.795Z,9.60
2018-04-07T11:11:07.763Z,10.10
2018-04-07T11:12:07.733Z,9.20
2018-04-07T11:13:07.692Z,10.90
2018-04-07T11:14:07.654Z,9.80
2018-04-07T11:15:07.650Z,9.60
2018-04-07T11:16:07.589Z,9.80
2018-04-07T11:17:07.557Z,8.60
2018-04-07T11:18:07.516Z,9.00
2018-04-07T11:19:07.485Z,9.70
2018-04-07T11:20:07.459Z,8.70
2018-04-07T11:21:07.416Z,10.50
2018-04-07T11:22:07.380Z,8.10
2018-04-07T11:23:07.349Z,8.30
2018-04-07T11:24:07.319Z,10.60
2018-04-07T11:25:07.278Z,9.00
2018-04-07T11:26:07.255Z,10.70
2018-04-07T11:27:07.208Z,9.60
2018-04-07T11:28:07.170Z,8.60
2018-04-07T11:29:07.139Z,10.20
2018-04-07T11:30:07.103Z,9.20
2018-04-07T11:31:07.077Z,10.20
2018-04-07T11:32:07.036Z,9.60
2018-04-07T11:33:07.002Z,11.10
2018-04-07T11:34:06.973Z,13.60
2018-04-07T11:35:06.937Z,9.60
2018-04-07T11:36:06.909Z,9.40
2018-04-07T11:37:06.872Z,9.30
2018-04-07T11:38:06.839Z,9.60
2018-04-07T11:39:06.806Z,10.70
2018-04-07T11:40:06.773Z,9.40
2018-04-07T11:41:06.743Z,11.50
2018-04-07T11:42:06.708Z,11.20
2018-04-07T11:43:09.528Z,10.30
2018-04-07T11:44:06.650Z,10.50
2018-04-07T11:45:06.662Z,10.10
2018-04-07T11:46:06.580Z,9.40
2018-04-07T11:47:06.547Z,10.10
2018-04-07T11:48:06.517Z,10.10
2018-04-07T11:49:06.485Z,13.30
2018-04-07T11:50:06.460Z,12.40
2018-04-07T11:51:06.420Z,12.20
2018-04-07T11:52:06.387Z,10.50
2018-04-07T11:53:06.375Z,11.00
2018-04-07T11:54:06.328Z,9.90
2018-04-07T11:55:06.291Z,10.60
2018-04-07T11:56:06.258Z,9.50
2018-04-07T11:57:06.232Z,9.90
2018-04-07T11:58:06.194Z,9.60
2018-04-07T11:59:06.162Z,9.60
2018-04-07T12:00:06.129Z,9.50
2018-04-07T12:01:06.100Z,9.70
2018-04-07T12:02:06.069Z,8.60
2018-04-07T12:03:06.041Z,9.50
2018-04-07T12:04:06.006Z,10.20
2018-04-07T12:05:05.975Z,10.60
2018-04-07T12:06:05.943Z,12.00
2018-04-07T12:07:05.914Z,10.20
2018-04-07T12:08:05.880Z,8.70
2018-04-07T12:09:05.855Z,9.40
2018-04-07T12:10:05.819Z,8.70
2018-04-07T12:11:05.822Z,10.80
2018-04-07T12:12:05.803Z,8.10
2018-04-07T12:13:05.728Z,9.60
2018-04-07T12:14:05.696Z,10.20
2018-04-07T12:15:05.667Z,9.30
2018-04-07T12:16:05.633Z,9.50
2018-04-07T12:17:05.602Z,8.60
2018-04-07T12:18:05.570Z,8.80
2018-04-07T12:19:05.544Z,10.80
2018-04-07T12:20:05.513Z,9.30
2018-04-07T12:21:05.478Z,8.30
2018-04-07T12:22:05.445Z,8.80
2018-04-07T12:23:05.417Z,9.10
2018-04-07T12:24:05.382Z,10.60
2018-04-07T12:25:05.352Z,9.50
2018-04-07T12:26:05.330Z,9.20
2018-04-07T12:27:05.293Z,9.90
2018-04-07T12:28:05.260Z,9.50
2018-04-07T12:29:05.229Z,10.00
2018-04-07T12:30:05.196Z,9.70
2018-04-07T12:31:05.175Z,10.00
2018-04-07T12:32:05.134Z,10.30
2018-04-07T12:33:05.111Z,8.70
2018-04-07T12:34:05.075Z,8.80
2018-04-07T12:35:05.050Z,9.90
2018-04-07T12:36:05.011Z,8.60
2018-04-07T12:37:04.980Z,8.60
2018-04-07T12:38:04.946Z,8.60
2018-04-07T12:39:04.921Z,9.50
2018-04-07T12:40:04.884Z,8.60
2018-04-07T12:41:04.855Z,10.00
2018-04-07T12:42:04.820Z,10.60
2018-04-07T12:43:04.790Z,8.30
2018-04-07T12:44:09.814Z,8.40
2018-04-07T12:45:04.729Z,9.70
2018-04-07T12:46:04.695Z,10.00
2018-04-07T12:47:04.667Z,7.40
2018-04-07T12:48:04.633Z,8.20
2018-04-07T12:49:04.606Z,8.30
2018-04-07T12:50:04.572Z,8.70
2018-04-07T12:51:04.542Z,8.20
2018-04-07T12:52:04.510Z,8.80
2018-04-07T12:53:04.480Z,9.00
2018-04-07T12:54:04.466Z,12.00
2018-04-07T12:55:04.426Z,9.20
2018-04-07T12:56:04.403Z,7.70
2018-04-07T12:57:04.358Z,7.90
2018-04-07T12:58:04.356Z,10.50
2018-04-07T12:59:04.300Z,9.40
2018-04-07T13:00:04.273Z,8.10
2018-04-07T13:01:04.241Z,7.20
2018-04-07T13:02:04.219Z,10.20
2018-04-07T13:03:04.182Z,11.50
2018-04-07T13:04:04.202Z,7.70
2018-04-07T13:05:04.126Z,9.30
2018-04-07T13:06:04.095Z,9.30
2018-04-07T13:07:04.076Z,8.20
2018-04-07T13:08:04.031Z,7.70
2018-04-07T13:10:03.975Z,8.40
2018-04-07T13:11:03.947Z,7.60
2018-04-07T13:12:03.922Z,8.30